气象报文与情报通波
气象报文机场: ZBAA
ADDS - METARS form results

(1149 UTC 18 November 2019)
数据来源 http://aviationweather.gov/metar/data/
 
METAR text: ZBAA 181130Z 23005MPS 210V280 CAVOK 02/M20 Q1027 NOSIG
Conditions at: ZBAA (BEIJING/PEKING , CN) observed 1130 UTC 18 November 2019
Temperature: 2.0°C (36°F)
Dewpoint: -20.0°C (-4°F) [RH = 18%]
Pressure (altimeter): 30.32 inches Hg (1027.0 mb)
Winds: from the SW (230 degrees) at 12 MPH (10 knots; 5.1 m/s)
Visibility: 6 or more miles (10+ km)
Ceiling: ceiling and visibility are OK
Clouds: unknown
Weather: no significant weather observed at this time

METAR text: ZBAA 181100Z 22004MPS 170V260 CAVOK 02/M20 Q1027 NOSIG
Conditions at: ZBAA (BEIJING/PEKING , CN) observed 1100 UTC 18 November 2019
Temperature: 2.0°C (36°F)
Dewpoint: -20.0°C (-4°F) [RH = 18%]
Pressure (altimeter): 30.32 inches Hg (1027.0 mb)
Winds: from the SW (220 degrees) at 9 MPH (8 knots; 4.1 m/s)
Visibility: 6 or more miles (10+ km)
Ceiling: ceiling and visibility are OK
Clouds: unknown
Weather: no significant weather observed at this time

Forecast for: ZBAA (BEIJING/PEKING , CN)
Text: TAF ZBAA 180920Z 1812/1912 30004MPS CAVOK TX07/1907Z TNM05/21Z
Forecast period: 1200 UTC 18 November 2019 to 1200 UTC 19 November 2019
Forecast type: FROM: standard forecast or significant change
Winds: from the WNW (300 degrees) at 9 MPH (8 knots; 4.1 m/s)
Visibility: 6 or more miles 10+ km)
Ceiling: unknown
Clouds: missing
Weather: no significant weather forecast for this period

 机场地图

 跑道信息
跑道 01 跑道长度 12468 ft 跑道宽度 197 ft
跑道标高 94 ft 跑道內移距离 0 ft 跑道磁航向 353
跑道 19 跑道长度 12468 ft 跑道宽度 197 ft
跑道标高 84 ft 跑道內移距离 0 ft 跑道磁航向 173
跑道 18L 跑道长度 12468 ft 跑道宽度 197 ft
跑道标高 110 ft 跑道內移距离 0 ft 跑道磁航向 173
跑道 36R 跑道长度 12468 ft 跑道宽度 197 ft
跑道标高 99 ft 跑道內移距离 0 ft 跑道磁航向 353
跑道 18R 跑道长度 10499 ft 跑道宽度 164 ft
跑道标高 116 ft 跑道內移距离 0 ft 跑道磁航向 173
跑道 36L 跑道长度 10499 ft 跑道宽度 164 ft
跑道标高 107 ft 跑道內移距离 0 ft 跑道磁航向 353

 机场频率
类型 APP 名称 BEIJING AP 频率 119.6 MHZ
类型 APP 名称 BEIJING AP 频率 119.7 MHZ
类型 APP 名称 BEIJING AP 频率 120.6 MHZ
类型 APP 名称 BEIJING AP 频率 121.1 MHZ
类型 APP 名称 BEIJING AP 频率 126.1 MHZ
类型 APP 名称 BEIJING AP 频率 127.75 MHZ
类型 ATIS 名称 BEIJING AT 频率 127.6 MHZ
类型 CLD 名称 BEIJING DE 频率 121.6 MHZ
类型 GND 名称 GND EAST 频率 121.7 MHZ
类型 GND 名称 BEIJING GN 频率 121.7 MHZ
类型 GND 名称 GND WEST 频率 121.9 MHZ
类型 TWR 名称 BEIJING EA 频率 118.5 MHZ
类型 TWR 名称 BEIJING W 频率 124.3 MHZ

 机场附近导航设备
类型 VOR-DME 名称 Beijing 频率 114700 KHZ
类型 VOR-DME 名称 Shaziying 频率 117200 KHZ



© FlySim.cn中国最大航空飞行视频网版权所有